sensor_id;sensor_type;location;lat;lon;timestamp;P1;durP1;ratioP1;P2;durP2;ratioP2
31746;SDS011;18319;48.974;8.462;2024-01-11T00:00:47;30.20;;;14.50;;
31746;SDS011;18319;48.974;8.462;2024-01-11T00:03:15;24.80;;;13.30;;
31746;SDS011;18319;48.974;8.462;2024-01-11T00:05:42;29.47;;;14.13;;
31746;SDS011;18319;48.974;8.462;2024-01-11T00:08:11;25.77;;;13.97;;
31746;SDS011;18319;48.974;8.462;2024-01-11T00:10:38;25.70;;;13.43;;
31746;SDS011;18319;48.974;8.462;2024-01-11T00:13:06;27.07;;;12.83;;
31746;SDS011;18319;48.974;8.462;2024-01-11T00:15:33;26.23;;;13.67;;
31746;SDS011;18319;48.974;8.462;2024-01-11T00:18:00;23.90;;;14.83;;
31746;SDS011;18319;48.974;8.462;2024-01-11T00:20:27;28.33;;;13.80;;
31746;SDS011;18319;48.974;8.462;2024-01-11T00:22:54;28.10;;;14.50;;
31746;SDS011;18319;48.974;8.462;2024-01-11T00:25:22;26.33;;;13.83;;
31746;SDS011;18319;48.974;8.462;2024-01-11T00:27:50;26.30;;;15.63;;
31746;SDS011;18319;48.974;8.462;2024-01-11T00:30:17;28.40;;;15.00;;
31746;SDS011;18319;48.974;8.462;2024-01-11T00:32:43;29.40;;;15.47;;
31746;SDS011;18319;48.974;8.462;2024-01-11T00:35:10;28.30;;;13.97;;
31746;SDS011;18319;48.974;8.462;2024-01-11T00:37:37;26.97;;;13.60;;
31746;SDS011;18319;48.974;8.462;2024-01-11T00:40:05;25.50;;;15.10;;
31746;SDS011;18319;48.974;8.462;2024-01-11T00:42:34;21.73;;;13.40;;
31746;SDS011;18319;48.974;8.462;2024-01-11T00:45:01;26.87;;;13.90;;
31746;SDS011;18319;48.974;8.462;2024-01-11T00:47:28;26.33;;;15.13;;
31746;SDS011;18319;48.974;8.462;2024-01-11T00:49:55;29.37;;;13.37;;
31746;SDS011;18319;48.974;8.462;2024-01-11T00:52:22;25.67;;;14.90;;
31746;SDS011;18319;48.974;8.462;2024-01-11T00:54:49;26.60;;;15.17;;
31746;SDS011;18319;48.974;8.462;2024-01-11T00:57:16;26.53;;;13.40;;
31746;SDS011;18319;48.974;8.462;2024-01-11T00:59:44;26.13;;;13.50;;
31746;SDS011;18319;48.974;8.462;2024-01-11T01:02:11;26.50;;;13.77;;
31746;SDS011;18319;48.974;8.462;2024-01-11T01:04:39;27.50;;;13.77;;
31746;SDS011;18319;48.974;8.462;2024-01-11T01:07:06;24.03;;;14.07;;
31746;SDS011;18319;48.974;8.462;2024-01-11T01:09:33;23.17;;;13.17;;
31746;SDS011;18319;48.974;8.462;2024-01-11T01:12:00;28.77;;;14.27;;
31746;SDS011;18319;48.974;8.462;2024-01-11T01:14:27;25.33;;;14.63;;
31746;SDS011;18319;48.974;8.462;2024-01-11T01:16:56;27.77;;;14.70;;
31746;SDS011;18319;48.974;8.462;2024-01-11T01:19:23;31.17;;;14.43;;
31746;SDS011;18319;48.974;8.462;2024-01-11T01:21:50;26.30;;;13.20;;
31746;SDS011;18319;48.974;8.462;2024-01-11T01:24:17;23.97;;;13.40;;
31746;SDS011;18319;48.974;8.462;2024-01-11T01:26:44;27.53;;;14.23;;
31746;SDS011;18319;48.974;8.462;2024-01-11T01:29:11;31.20;;;14.63;;
31746;SDS011;18319;48.974;8.462;2024-01-11T01:31:38;24.03;;;13.33;;
31746;SDS011;18319;48.974;8.462;2024-01-11T01:34:07;25.10;;;13.70;;
31746;SDS011;18319;48.974;8.462;2024-01-11T01:36:35;26.63;;;13.50;;
31746;SDS011;18319;48.974;8.462;2024-01-11T01:39:02;28.73;;;13.43;;
31746;SDS011;18319;48.974;8.462;2024-01-11T01:41:29;27.47;;;13.90;;
31746;SDS011;18319;48.974;8.462;2024-01-11T01:43:56;27.13;;;13.50;;
31746;SDS011;18319;48.974;8.462;2024-01-11T01:46:23;23.00;;;13.83;;
31746;SDS011;18319;48.974;8.462;2024-01-11T01:48:50;24.77;;;13.83;;
31746;SDS011;18319;48.974;8.462;2024-01-11T01:51:19;25.47;;;14.40;;
31746;SDS011;18319;48.974;8.462;2024-01-11T01:53:47;25.80;;;13.77;;
31746;SDS011;18319;48.974;8.462;2024-01-11T01:56:15;24.47;;;14.27;;
31746;SDS011;18319;48.974;8.462;2024-01-11T01:58:43;24.63;;;13.67;;
31746;SDS011;18319;48.974;8.462;2024-01-11T02:01:10;28.33;;;15.63;;
31746;SDS011;18319;48.974;8.462;2024-01-11T02:03:38;26.13;;;14.30;;
31746;SDS011;18319;48.974;8.462;2024-01-11T02:06:05;25.37;;;15.23;;
31746;SDS011;18319;48.974;8.462;2024-01-11T02:08:34;23.87;;;13.00;;
31746;SDS011;18319;48.974;8.462;2024-01-11T02:11:01;25.30;;;14.50;;
31746;SDS011;18319;48.974;8.462;2024-01-11T02:13:28;26.73;;;14.00;;
31746;SDS011;18319;48.974;8.462;2024-01-11T02:15:55;25.27;;;13.27;;
31746;SDS011;18319;48.974;8.462;2024-01-11T02:18:22;26.43;;;15.20;;
31746;SDS011;18319;48.974;8.462;2024-01-11T02:20:49;29.17;;;14.37;;
31746;SDS011;18319;48.974;8.462;2024-01-11T02:23:17;19.70;;;13.33;;
31746;SDS011;18319;48.974;8.462;2024-01-11T02:25:46;29.50;;;15.20;;
31746;SDS011;18319;48.974;8.462;2024-01-11T02:28:14;29.80;;;14.37;;
31746;SDS011;18319;48.974;8.462;2024-01-11T02:30:41;19.60;;;12.83;;
31746;SDS011;18319;48.974;8.462;2024-01-11T02:33:08;25.07;;;13.27;;
31746;SDS011;18319;48.974;8.462;2024-01-11T02:35:36;27.60;;;14.90;;
31746;SDS011;18319;48.974;8.462;2024-01-11T02:38:06;24.63;;;13.20;;
31746;SDS011;18319;48.974;8.462;2024-01-11T02:40:33;24.47;;;14.23;;
31746;SDS011;18319;48.974;8.462;2024-01-11T02:43:08;24.90;;;15.87;;
31746;SDS011;18319;48.974;8.462;2024-01-11T02:45:35;28.20;;;15.13;;
31746;SDS011;18319;48.974;8.462;2024-01-11T02:48:02;29.70;;;15.27;;
31746;SDS011;18319;48.974;8.462;2024-01-11T02:50:29;27.40;;;15.53;;
31746;SDS011;18319;48.974;8.462;2024-01-11T02:52:57;26.67;;;14.53;;
31746;SDS011;18319;48.974;8.462;2024-01-11T02:55:24;27.43;;;15.43;;
31746;SDS011;18319;48.974;8.462;2024-01-11T02:57:51;26.30;;;14.20;;
31746;SDS011;18319;48.974;8.462;2024-01-11T03:00:19;23.23;;;14.47;;
31746;SDS011;18319;48.974;8.462;2024-01-11T03:02:46;25.93;;;13.77;;
31746;SDS011;18319;48.974;8.462;2024-01-11T03:05:16;28.67;;;15.03;;
31746;SDS011;18319;48.974;8.462;2024-01-11T03:07:43;25.30;;;14.70;;
31746;SDS011;18319;48.974;8.462;2024-01-11T03:10:10;30.97;;;16.37;;
31746;SDS011;18319;48.974;8.462;2024-01-11T03:12:39;27.47;;;13.87;;
31746;SDS011;18319;48.974;8.462;2024-01-11T03:15:06;28.50;;;14.50;;
31746;SDS011;18319;48.974;8.462;2024-01-11T03:17:35;27.80;;;15.23;;
31746;SDS011;18319;48.974;8.462;2024-01-11T03:20:02;32.17;;;16.10;;
31746;SDS011;18319;48.974;8.462;2024-01-11T03:22:30;29.73;;;15.60;;
31746;SDS011;18319;48.974;8.462;2024-01-11T03:24:57;27.77;;;13.70;;
31746;SDS011;18319;48.974;8.462;2024-01-11T03:27:24;26.90;;;16.03;;
31746;SDS011;18319;48.974;8.462;2024-01-11T03:29:51;27.70;;;14.37;;
31746;SDS011;18319;48.974;8.462;2024-01-11T03:32:18;31.07;;;15.40;;
31746;SDS011;18319;48.974;8.462;2024-01-11T03:34:47;28.43;;;15.43;;
31746;SDS011;18319;48.974;8.462;2024-01-11T03:37:14;28.17;;;15.53;;
31746;SDS011;18319;48.974;8.462;2024-01-11T03:39:41;29.97;;;15.10;;
31746;SDS011;18319;48.974;8.462;2024-01-11T03:42:08;30.57;;;15.97;;
31746;SDS011;18319;48.974;8.462;2024-01-11T03:44:36;24.87;;;15.17;;
31746;SDS011;18319;48.974;8.462;2024-01-11T03:47:03;24.23;;;13.87;;
31746;SDS011;18319;48.974;8.462;2024-01-11T03:49:30;25.63;;;13.67;;
31746;SDS011;18319;48.974;8.462;2024-01-11T03:51:59;30.20;;;16.43;;
31746;SDS011;18319;48.974;8.462;2024-01-11T03:54:26;31.00;;;15.13;;
31746;SDS011;18319;48.974;8.462;2024-01-11T03:56:53;23.63;;;14.40;;
31746;SDS011;18319;48.974;8.462;2024-01-11T03:59:20;33.40;;;16.20;;
31746;SDS011;18319;48.974;8.462;2024-01-11T04:01:47;31.43;;;15.43;;
31746;SDS011;18319;48.974;8.462;2024-01-11T04:04:14;33.57;;;16.30;;
31746;SDS011;18319;48.974;8.462;2024-01-11T04:06:41;28.60;;;14.60;;
31746;SDS011;18319;48.974;8.462;2024-01-11T04:09:09;31.30;;;15.30;;
31746;SDS011;18319;48.974;8.462;2024-01-11T04:11:36;29.87;;;16.17;;
31746;SDS011;18319;48.974;8.462;2024-01-11T04:14:03;29.87;;;15.37;;
31746;SDS011;18319;48.974;8.462;2024-01-11T04:16:31;29.57;;;16.03;;
31746;SDS011;18319;48.974;8.462;2024-01-11T04:18:58;30.40;;;16.07;;
31746;SDS011;18319;48.974;8.462;2024-01-11T04:21:28;29.60;;;15.73;;
31746;SDS011;18319;48.974;8.462;2024-01-11T04:23:55;27.57;;;14.07;;
31746;SDS011;18319;48.974;8.462;2024-01-11T04:26:23;32.23;;;15.57;;
31746;SDS011;18319;48.974;8.462;2024-01-11T04:28:51;30.43;;;15.63;;
31746;SDS011;18319;48.974;8.462;2024-01-11T04:31:18;25.87;;;15.67;;
31746;SDS011;18319;48.974;8.462;2024-01-11T04:33:45;30.83;;;16.10;;
31746;SDS011;18319;48.974;8.462;2024-01-11T04:36:13;36.70;;;15.67;;
31746;SDS011;18319;48.974;8.462;2024-01-11T04:38:40;29.87;;;15.50;;
31746;SDS011;18319;48.974;8.462;2024-01-11T04:41:07;26.93;;;15.53;;
31746;SDS011;18319;48.974;8.462;2024-01-11T04:43:36;28.90;;;14.93;;
31746;SDS011;18319;48.974;8.462;2024-01-11T04:46:12;34.07;;;15.33;;
31746;SDS011;18319;48.974;8.462;2024-01-11T04:48:39;31.37;;;16.97;;
31746;SDS011;18319;48.974;8.462;2024-01-11T04:51:06;32.17;;;15.83;;
31746;SDS011;18319;48.974;8.462;2024-01-11T04:53:33;29.67;;;15.50;;
31746;SDS011;18319;48.974;8.462;2024-01-11T04:56:02;32.47;;;15.97;;
31746;SDS011;18319;48.974;8.462;2024-01-11T04:58:29;30.60;;;15.57;;
31746;SDS011;18319;48.974;8.462;2024-01-11T05:00:58;25.10;;;15.23;;
31746;SDS011;18319;48.974;8.462;2024-01-11T05:03:25;31.67;;;15.77;;
31746;SDS011;18319;48.974;8.462;2024-01-11T05:05:52;29.37;;;14.57;;
31746;SDS011;18319;48.974;8.462;2024-01-11T05:08:19;27.37;;;15.73;;
31746;SDS011;18319;48.974;8.462;2024-01-11T05:10:46;27.37;;;14.07;;
31746;SDS011;18319;48.974;8.462;2024-01-11T05:13:13;27.13;;;15.50;;
31746;SDS011;18319;48.974;8.462;2024-01-11T05:15:40;30.13;;;14.53;;
31746;SDS011;18319;48.974;8.462;2024-01-11T05:18:09;31.37;;;15.90;;
31746;SDS011;18319;48.974;8.462;2024-01-11T05:20:36;35.03;;;15.60;;
31746;SDS011;18319;48.974;8.462;2024-01-11T05:23:03;27.33;;;14.97;;
31746;SDS011;18319;48.974;8.462;2024-01-11T05:25:30;28.67;;;14.20;;
31746;SDS011;18319;48.974;8.462;2024-01-11T05:27:58;31.63;;;14.10;;
31746;SDS011;18319;48.974;8.462;2024-01-11T05:30:25;30.03;;;13.77;;
31746;SDS011;18319;48.974;8.462;2024-01-11T05:32:53;27.30;;;14.20;;
31746;SDS011;18319;48.974;8.462;2024-01-11T05:35:21;28.03;;;12.97;;
31746;SDS011;18319;48.974;8.462;2024-01-11T05:37:49;26.70;;;14.93;;
31746;SDS011;18319;48.974;8.462;2024-01-11T05:40:16;29.80;;;14.37;;
31746;SDS011;18319;48.974;8.462;2024-01-11T05:42:43;29.33;;;15.30;;
31746;SDS011;18319;48.974;8.462;2024-01-11T05:45:10;26.67;;;13.43;;
31746;SDS011;18319;48.974;8.462;2024-01-11T05:47:37;27.53;;;14.13;;
31746;SDS011;18319;48.974;8.462;2024-01-11T05:50:04;23.53;;;12.57;;
31746;SDS011;18319;48.974;8.462;2024-01-11T05:52:33;27.63;;;14.10;;
31746;SDS011;18319;48.974;8.462;2024-01-11T05:55:00;27.13;;;13.50;;
31746;SDS011;18319;48.974;8.462;2024-01-11T05:57:27;32.30;;;14.27;;
31746;SDS011;18319;48.974;8.462;2024-01-11T05:59:54;27.83;;;13.70;;
31746;SDS011;18319;48.974;8.462;2024-01-11T06:02:21;25.43;;;14.27;;
31746;SDS011;18319;48.974;8.462;2024-01-11T06:04:48;24.63;;;14.27;;
31746;SDS011;18319;48.974;8.462;2024-01-11T06:07:15;25.47;;;15.03;;
31746;SDS011;18319;48.974;8.462;2024-01-11T06:09:44;28.30;;;14.37;;
31746;SDS011;18319;48.974;8.462;2024-01-11T06:12:11;27.00;;;14.80;;
31746;SDS011;18319;48.974;8.462;2024-01-11T06:14:39;21.47;;;12.97;;
31746;SDS011;18319;48.974;8.462;2024-01-11T06:17:06;28.40;;;14.33;;
31746;SDS011;18319;48.974;8.462;2024-01-11T06:19:35;31.13;;;15.43;;
31746;SDS011;18319;48.974;8.462;2024-01-11T06:22:03;30.10;;;15.90;;
31746;SDS011;18319;48.974;8.462;2024-01-11T06:24:30;19.67;;;12.27;;
31746;SDS011;18319;48.974;8.462;2024-01-11T06:26:58;22.53;;;13.10;;
31746;SDS011;18319;48.974;8.462;2024-01-11T06:29:25;21.03;;;12.57;;
31746;SDS011;18319;48.974;8.462;2024-01-11T06:31:53;32.03;;;13.93;;
31746;SDS011;18319;48.974;8.462;2024-01-11T06:34:20;26.57;;;13.70;;
31746;SDS011;18319;48.974;8.462;2024-01-11T06:36:47;30.57;;;14.00;;
31746;SDS011;18319;48.974;8.462;2024-01-11T06:39:14;25.13;;;13.60;;
31746;SDS011;18319;48.974;8.462;2024-01-11T06:41:41;26.83;;;13.47;;
31746;SDS011;18319;48.974;8.462;2024-01-11T06:44:10;31.17;;;16.03;;
31746;SDS011;18319;48.974;8.462;2024-01-11T06:46:37;27.37;;;15.60;;
31746;SDS011;18319;48.974;8.462;2024-01-11T06:49:06;27.73;;;13.73;;
31746;SDS011;18319;48.974;8.462;2024-01-11T06:51:33;27.10;;;13.90;;
31746;SDS011;18319;48.974;8.462;2024-01-11T06:54:00;20.10;;;12.70;;
31746;SDS011;18319;48.974;8.462;2024-01-11T06:56:27;28.00;;;14.73;;
31746;SDS011;18319;48.974;8.462;2024-01-11T06:58:54;25.80;;;15.23;;
31746;SDS011;18319;48.974;8.462;2024-01-11T07:01:23;28.30;;;15.00;;
31746;SDS011;18319;48.974;8.462;2024-01-11T07:03:50;29.10;;;13.33;;
31746;SDS011;18319;48.974;8.462;2024-01-11T07:06:17;24.40;;;14.03;;
31746;SDS011;18319;48.974;8.462;2024-01-11T07:08:44;28.07;;;15.77;;
31746;SDS011;18319;48.974;8.462;2024-01-11T07:11:11;27.40;;;13.97;;
31746;SDS011;18319;48.974;8.462;2024-01-11T07:13:39;24.27;;;14.43;;
31746;SDS011;18319;48.974;8.462;2024-01-11T07:16:06;29.37;;;14.90;;
31746;SDS011;18319;48.974;8.462;2024-01-11T07:18:34;27.07;;;15.43;;
31746;SDS011;18319;48.974;8.462;2024-01-11T07:21:01;29.67;;;14.50;;
31746;SDS011;18319;48.974;8.462;2024-01-11T07:23:28;27.17;;;14.67;;
31746;SDS011;18319;48.974;8.462;2024-01-11T07:25:55;26.40;;;14.07;;
31746;SDS011;18319;48.974;8.462;2024-01-11T07:28:23;29.77;;;14.43;;
31746;SDS011;18319;48.974;8.462;2024-01-11T07:30:50;23.73;;;14.10;;
31746;SDS011;18319;48.974;8.462;2024-01-11T07:33:18;24.17;;;14.20;;
31746;SDS011;18319;48.974;8.462;2024-01-11T07:35:46;22.97;;;13.77;;
31746;SDS011;18319;48.974;8.462;2024-01-11T07:38:14;24.63;;;13.43;;
31746;SDS011;18319;48.974;8.462;2024-01-11T07:40:41;34.60;;;14.60;;
31746;SDS011;18319;48.974;8.462;2024-01-11T07:43:08;27.50;;;14.70;;
31746;SDS011;18319;48.974;8.462;2024-01-11T07:45:35;26.27;;;13.07;;
31746;SDS011;18319;48.974;8.462;2024-01-11T07:48:02;25.93;;;14.53;;
31746;SDS011;18319;48.974;8.462;2024-01-11T07:50:30;29.07;;;13.67;;
31746;SDS011;18319;48.974;8.462;2024-01-11T07:52:58;28.93;;;14.73;;
31746;SDS011;18319;48.974;8.462;2024-01-11T07:55:26;26.37;;;12.73;;
31746;SDS011;18319;48.974;8.462;2024-01-11T07:57:53;27.83;;;14.13;;
31746;SDS011;18319;48.974;8.462;2024-01-11T08:00:20;24.80;;;12.73;;
31746;SDS011;18319;48.974;8.462;2024-01-11T08:02:48;29.67;;;14.63;;
31746;SDS011;18319;48.974;8.462;2024-01-11T08:05:15;29.77;;;15.77;;
31746;SDS011;18319;48.974;8.462;2024-01-11T08:07:42;25.90;;;13.93;;
31746;SDS011;18319;48.974;8.462;2024-01-11T08:10:11;27.40;;;15.77;;
31746;SDS011;18319;48.974;8.462;2024-01-11T08:12:38;20.93;;;12.13;;
31746;SDS011;18319;48.974;8.462;2024-01-11T08:15:05;27.40;;;14.47;;
31746;SDS011;18319;48.974;8.462;2024-01-11T08:17:33;27.13;;;13.47;;
31746;SDS011;18319;48.974;8.462;2024-01-11T08:20:00;22.97;;;12.97;;
31746;SDS011;18319;48.974;8.462;2024-01-11T08:22:26;24.13;;;14.03;;
31746;SDS011;18319;48.974;8.462;2024-01-11T08:24:58;29.33;;;12.93;;
31746;SDS011;18319;48.974;8.462;2024-01-11T08:27:27;19.47;;;13.03;;
31746;SDS011;18319;48.974;8.462;2024-01-11T08:29:54;23.73;;;14.07;;
31746;SDS011;18319;48.974;8.462;2024-01-11T08:32:21;27.70;;;13.60;;
31746;SDS011;18319;48.974;8.462;2024-01-11T08:34:48;27.23;;;13.87;;
31746;SDS011;18319;48.974;8.462;2024-01-11T08:37:15;26.73;;;14.70;;
31746;SDS011;18319;48.974;8.462;2024-01-11T08:39:42;25.67;;;14.60;;
31746;SDS011;18319;48.974;8.462;2024-01-11T08:42:11;33.83;;;14.53;;
31746;SDS011;18319;48.974;8.462;2024-01-11T08:44:42;21.07;;;12.20;;
31746;SDS011;18319;48.974;8.462;2024-01-11T08:47:09;25.90;;;14.87;;
31746;SDS011;18319;48.974;8.462;2024-01-11T08:49:36;26.97;;;13.87;;
31746;SDS011;18319;48.974;8.462;2024-01-11T08:52:03;32.67;;;15.80;;
31746;SDS011;18319;48.974;8.462;2024-01-11T08:54:30;29.70;;;14.37;;
31746;SDS011;18319;48.974;8.462;2024-01-11T08:56:58;24.53;;;14.00;;
31746;SDS011;18319;48.974;8.462;2024-01-11T08:59:26;24.97;;;14.50;;
31746;SDS011;18319;48.974;8.462;2024-01-11T09:01:54;30.63;;;14.90;;
31746;SDS011;18319;48.974;8.462;2024-01-11T09:04:21;26.40;;;14.97;;
31746;SDS011;18319;48.974;8.462;2024-01-11T09:06:48;24.33;;;14.20;;
31746;SDS011;18319;48.974;8.462;2024-01-11T09:09:15;28.00;;;14.10;;
31746;SDS011;18319;48.974;8.462;2024-01-11T09:11:42;30.67;;;14.23;;
31746;SDS011;18319;48.974;8.462;2024-01-11T09:14:08;29.97;;;15.50;;
31746;SDS011;18319;48.974;8.462;2024-01-11T09:16:36;29.50;;;14.27;;
31746;SDS011;18319;48.974;8.462;2024-01-11T09:19:06;30.47;;;16.20;;
31746;SDS011;18319;48.974;8.462;2024-01-11T09:21:33;26.87;;;16.10;;
31746;SDS011;18319;48.974;8.462;2024-01-11T09:24:00;24.80;;;14.97;;
31746;SDS011;18319;48.974;8.462;2024-01-11T09:26:27;28.60;;;16.30;;
31746;SDS011;18319;48.974;8.462;2024-01-11T09:28:53;29.07;;;16.10;;
31746;SDS011;18319;48.974;8.462;2024-01-11T09:31:20;24.53;;;14.47;;
31746;SDS011;18319;48.974;8.462;2024-01-11T09:33:47;26.80;;;14.17;;
31746;SDS011;18319;48.974;8.462;2024-01-11T09:36:16;28.13;;;16.27;;
31746;SDS011;18319;48.974;8.462;2024-01-11T09:38:44;33.23;;;15.87;;
31746;SDS011;18319;48.974;8.462;2024-01-11T09:41:11;29.23;;;15.17;;
31746;SDS011;18319;48.974;8.462;2024-01-11T09:43:40;28.73;;;16.90;;
31746;SDS011;18319;48.974;8.462;2024-01-11T09:46:08;27.67;;;15.07;;
31746;SDS011;18319;48.974;8.462;2024-01-11T09:48:37;28.00;;;15.33;;
31746;SDS011;18319;48.974;8.462;2024-01-11T09:51:05;26.27;;;15.47;;
31746;SDS011;18319;48.974;8.462;2024-01-11T09:53:37;31.37;;;15.97;;
31746;SDS011;18319;48.974;8.462;2024-01-11T09:56:04;26.80;;;14.77;;
31746;SDS011;18319;48.974;8.462;2024-01-11T09:58:33;33.73;;;16.23;;
31746;SDS011;18319;48.974;8.462;2024-01-11T10:01:01;28.00;;;16.33;;
31746;SDS011;18319;48.974;8.462;2024-01-11T10:03:28;27.40;;;15.17;;
31746;SDS011;18319;48.974;8.462;2024-01-11T10:05:57;33.60;;;17.17;;
31746;SDS011;18319;48.974;8.462;2024-01-11T10:08:24;28.13;;;16.60;;
31746;SDS011;18319;48.974;8.462;2024-01-11T10:10:53;26.80;;;15.00;;
31746;SDS011;18319;48.974;8.462;2024-01-11T10:13:25;28.93;;;17.20;;
31746;SDS011;18319;48.974;8.462;2024-01-11T10:15:52;26.57;;;16.17;;
31746;SDS011;18319;48.974;8.462;2024-01-11T10:18:21;27.20;;;16.70;;
31746;SDS011;18319;48.974;8.462;2024-01-11T10:20:48;33.17;;;15.83;;
31746;SDS011;18319;48.974;8.462;2024-01-11T10:23:17;31.83;;;16.17;;
31746;SDS011;18319;48.974;8.462;2024-01-11T10:25:44;36.97;;;17.60;;
31746;SDS011;18319;48.974;8.462;2024-01-11T10:28:14;33.17;;;18.53;;
31746;SDS011;18319;48.974;8.462;2024-01-11T10:30:45;26.80;;;16.47;;
31746;SDS011;18319;48.974;8.462;2024-01-11T10:33:13;32.57;;;17.87;;
31746;SDS011;18319;48.974;8.462;2024-01-11T10:35:40;33.53;;;16.63;;
31746;SDS011;18319;48.974;8.462;2024-01-11T10:38:09;30.77;;;16.27;;
31746;SDS011;18319;48.974;8.462;2024-01-11T10:40:36;29.90;;;17.37;;
31746;SDS011;18319;48.974;8.462;2024-01-11T10:43:03;27.43;;;15.83;;
31746;SDS011;18319;48.974;8.462;2024-01-11T10:45:37;27.70;;;14.67;;
31746;SDS011;18319;48.974;8.462;2024-01-11T10:48:06;29.40;;;16.63;;
31746;SDS011;18319;48.974;8.462;2024-01-11T10:50:34;26.30;;;16.90;;
31746;SDS011;18319;48.974;8.462;2024-01-11T10:53:09;34.53;;;17.23;;
31746;SDS011;18319;48.974;8.462;2024-01-11T10:55:43;33.30;;;17.10;;
31746;SDS011;18319;48.974;8.462;2024-01-11T10:58:11;34.47;;;18.03;;
31746;SDS011;18319;48.974;8.462;2024-01-11T11:00:40;35.67;;;17.63;;
31746;SDS011;18319;48.974;8.462;2024-01-11T11:03:07;29.57;;;16.20;;
31746;SDS011;18319;48.974;8.462;2024-01-11T11:05:37;31.00;;;16.77;;
31746;SDS011;18319;48.974;8.462;2024-01-11T11:08:05;33.03;;;16.97;;
31746;SDS011;18319;48.974;8.462;2024-01-11T11:10:36;28.40;;;15.90;;
31746;SDS011;18319;48.974;8.462;2024-01-11T11:13:06;30.40;;;18.10;;
31746;SDS011;18319;48.974;8.462;2024-01-11T11:15:35;28.50;;;15.03;;
31746;SDS011;18319;48.974;8.462;2024-01-11T11:18:04;35.53;;;18.70;;
31746;SDS011;18319;48.974;8.462;2024-01-11T11:20:32;28.47;;;16.47;;
31746;SDS011;18319;48.974;8.462;2024-01-11T11:23:06;25.53;;;16.23;;
31746;SDS011;18319;48.974;8.462;2024-01-11T11:25:34;28.10;;;16.60;;
31746;SDS011;18319;48.974;8.462;2024-01-11T11:28:03;27.93;;;16.77;;
31746;SDS011;18319;48.974;8.462;2024-01-11T11:30:30;31.60;;;17.30;;
31746;SDS011;18319;48.974;8.462;2024-01-11T11:32:57;34.37;;;18.13;;
31746;SDS011;18319;48.974;8.462;2024-01-11T11:35:26;31.60;;;18.50;;
31746;SDS011;18319;48.974;8.462;2024-01-11T11:37:53;31.40;;;17.50;;
31746;SDS011;18319;48.974;8.462;2024-01-11T11:40:31;34.00;;;19.83;;
31746;SDS011;18319;48.974;8.462;2024-01-11T11:43:01;29.23;;;16.77;;
31746;SDS011;18319;48.974;8.462;2024-01-11T11:45:30;29.27;;;17.03;;
31746;SDS011;18319;48.974;8.462;2024-01-11T11:47:57;27.80;;;16.93;;
31746;SDS011;18319;48.974;8.462;2024-01-11T11:50:24;34.60;;;18.07;;
31746;SDS011;18319;48.974;8.462;2024-01-11T11:52:56;34.07;;;18.73;;
31746;SDS011;18319;48.974;8.462;2024-01-11T11:55:23;34.57;;;17.93;;
31746;SDS011;18319;48.974;8.462;2024-01-11T11:57:51;29.63;;;17.03;;
31746;SDS011;18319;48.974;8.462;2024-01-11T12:00:19;30.33;;;18.83;;
31746;SDS011;18319;48.974;8.462;2024-01-11T12:02:46;33.40;;;17.43;;
31746;SDS011;18319;48.974;8.462;2024-01-11T12:05:14;31.37;;;18.50;;
31746;SDS011;18319;48.974;8.462;2024-01-11T12:07:41;32.47;;;17.70;;
31746;SDS011;18319;48.974;8.462;2024-01-11T12:10:09;34.57;;;17.63;;
31746;SDS011;18319;48.974;8.462;2024-01-11T12:12:39;30.93;;;17.23;;
31746;SDS011;18319;48.974;8.462;2024-01-11T12:15:07;28.07;;;17.03;;
31746;SDS011;18319;48.974;8.462;2024-01-11T12:17:34;33.77;;;20.83;;
31746;SDS011;18319;48.974;8.462;2024-01-11T12:20:03;38.80;;;18.53;;
31746;SDS011;18319;48.974;8.462;2024-01-11T12:22:32;29.47;;;18.60;;
31746;SDS011;18319;48.974;8.462;2024-01-11T12:24:59;32.33;;;18.10;;
31746;SDS011;18319;48.974;8.462;2024-01-11T12:27:27;31.20;;;17.50;;
31746;SDS011;18319;48.974;8.462;2024-01-11T12:29:54;31.37;;;19.10;;
31746;SDS011;18319;48.974;8.462;2024-01-11T12:32:21;31.07;;;18.73;;
31746;SDS011;18319;48.974;8.462;2024-01-11T12:34:49;32.43;;;18.50;;
31746;SDS011;18319;48.974;8.462;2024-01-11T12:37:18;26.87;;;17.57;;
31746;SDS011;18319;48.974;8.462;2024-01-11T12:39:46;34.97;;;19.23;;
31746;SDS011;18319;48.974;8.462;2024-01-11T12:42:14;29.13;;;18.67;;
31746;SDS011;18319;48.974;8.462;2024-01-11T12:44:43;33.90;;;19.40;;
31746;SDS011;18319;48.974;8.462;2024-01-11T12:47:11;31.83;;;18.87;;
31746;SDS011;18319;48.974;8.462;2024-01-11T12:49:42;31.90;;;18.20;;
31746;SDS011;18319;48.974;8.462;2024-01-11T12:52:14;35.00;;;19.50;;
31746;SDS011;18319;48.974;8.462;2024-01-11T12:54:42;33.23;;;19.17;;
31746;SDS011;18319;48.974;8.462;2024-01-11T12:57:11;33.97;;;19.20;;
31746;SDS011;18319;48.974;8.462;2024-01-11T12:59:38;30.73;;;18.13;;
31746;SDS011;18319;48.974;8.462;2024-01-11T13:02:06;33.00;;;18.53;;
31746;SDS011;18319;48.974;8.462;2024-01-11T13:04:33;32.73;;;18.40;;
31746;SDS011;18319;48.974;8.462;2024-01-11T13:07:02;32.20;;;18.70;;
31746;SDS011;18319;48.974;8.462;2024-01-11T13:09:29;32.50;;;19.57;;
31746;SDS011;18319;48.974;8.462;2024-01-11T13:11:56;34.00;;;18.70;;
31746;SDS011;18319;48.974;8.462;2024-01-11T13:14:24;34.70;;;16.87;;
31746;SDS011;18319;48.974;8.462;2024-01-11T13:16:50;31.87;;;18.30;;
31746;SDS011;18319;48.974;8.462;2024-01-11T13:19:19;29.60;;;17.40;;
31746;SDS011;18319;48.974;8.462;2024-01-11T13:21:46;35.03;;;20.90;;
31746;SDS011;18319;48.974;8.462;2024-01-11T13:24:13;32.53;;;19.30;;
31746;SDS011;18319;48.974;8.462;2024-01-11T13:26:40;28.63;;;17.53;;
31746;SDS011;18319;48.974;8.462;2024-01-11T13:29:07;29.47;;;17.63;;
31746;SDS011;18319;48.974;8.462;2024-01-11T13:31:36;30.97;;;18.40;;
31746;SDS011;18319;48.974;8.462;2024-01-11T13:34:03;32.93;;;18.17;;
31746;SDS011;18319;48.974;8.462;2024-01-11T13:36:31;34.50;;;19.37;;
31746;SDS011;18319;48.974;8.462;2024-01-11T13:38:59;27.23;;;17.00;;
31746;SDS011;18319;48.974;8.462;2024-01-11T13:41:26;29.23;;;18.97;;
31746;SDS011;18319;48.974;8.462;2024-01-11T13:43:53;32.80;;;17.87;;
31746;SDS011;18319;48.974;8.462;2024-01-11T13:46:20;30.67;;;18.30;;
31746;SDS011;18319;48.974;8.462;2024-01-11T13:48:48;29.50;;;16.80;;
31746;SDS011;18319;48.974;8.462;2024-01-11T13:51:15;29.93;;;16.30;;
31746;SDS011;18319;48.974;8.462;2024-01-11T13:53:44;29.23;;;14.93;;
31746;SDS011;18319;48.974;8.462;2024-01-11T13:56:11;26.77;;;16.20;;
31746;SDS011;18319;48.974;8.462;2024-01-11T13:58:38;29.37;;;16.23;;
31746;SDS011;18319;48.974;8.462;2024-01-11T14:01:05;28.40;;;15.47;;
31746;SDS011;18319;48.974;8.462;2024-01-11T14:03:33;29.50;;;14.50;;
31746;SDS011;18319;48.974;8.462;2024-01-11T14:06:00;21.67;;;14.30;;
31746;SDS011;18319;48.974;8.462;2024-01-11T14:08:27;37.93;;;18.13;;
31746;SDS011;18319;48.974;8.462;2024-01-11T14:10:56;30.80;;;18.90;;
31746;SDS011;18319;48.974;8.462;2024-01-11T14:13:23;39.87;;;21.00;;
31746;SDS011;18319;48.974;8.462;2024-01-11T14:15:50;26.30;;;16.60;;
31746;SDS011;18319;48.974;8.462;2024-01-11T14:18:18;25.00;;;14.43;;
31746;SDS011;18319;48.974;8.462;2024-01-11T14:20:46;20.27;;;13.77;;
31746;SDS011;18319;48.974;8.462;2024-01-11T14:23:13;26.93;;;15.23;;